sensor_id;sensor_type;location;lat;lon;timestamp;pressure;altitude;pressure_sealevel;temperature;humidity
18527;BME280;9393;42.158;24.748;2023-02-12T00:01:33;100578.66;;;4.29;39.83
18527;BME280;9393;42.158;24.748;2023-02-12T00:04:38;100562.63;;;4.23;39.65
18527;BME280;9393;42.158;24.748;2023-02-12T00:07:41;100565.00;;;4.27;39.89
18527;BME280;9393;42.158;24.748;2023-02-12T00:10:46;100558.88;;;4.45;39.00
18527;BME280;9393;42.158;24.748;2023-02-12T00:13:50;100559.81;;;4.27;39.27
18527;BME280;9393;42.158;24.748;2023-02-12T00:16:55;100552.28;;;4.40;39.33
18527;BME280;9393;42.158;24.748;2023-02-12T00:19:58;100564.44;;;4.21;39.01
18527;BME280;9393;42.158;24.748;2023-02-12T00:23:02;100559.81;;;4.44;39.49
18527;BME280;9393;42.158;24.748;2023-02-12T00:26:09;100561.41;;;4.30;39.53
18527;BME280;9393;42.158;24.748;2023-02-12T00:29:19;100551.31;;;4.08;40.42
18527;BME280;9393;42.158;24.748;2023-02-12T00:32:23;100540.44;;;4.36;39.85
18527;BME280;9393;42.158;24.748;2023-02-12T00:35:26;100532.19;;;4.45;40.29
18527;BME280;9393;42.158;24.748;2023-02-12T00:38:30;100540.78;;;4.45;40.02
18527;BME280;9393;42.158;24.748;2023-02-12T00:41:35;100527.09;;;4.61;39.94
18527;BME280;9393;42.158;24.748;2023-02-12T00:44:39;100517.31;;;4.50;39.72
18527;BME280;9393;42.158;24.748;2023-02-12T00:47:43;100520.91;;;4.47;40.38
18527;BME280;9393;42.158;24.748;2023-02-12T00:50:50;100512.38;;;4.45;39.80
18527;BME280;9393;42.158;24.748;2023-02-12T00:53:53;100506.06;;;4.18;40.53
18527;BME280;9393;42.158;24.748;2023-02-12T00:56:59;100496.03;;;4.29;40.08
18527;BME280;9393;42.158;24.748;2023-02-12T01:00:04;100501.72;;;4.19;39.35
18527;BME280;9393;42.158;24.748;2023-02-12T01:03:09;100486.31;;;4.50;39.27
18527;BME280;9393;42.158;24.748;2023-02-12T01:06:13;100481.13;;;4.34;38.35
18527;BME280;9393;42.158;24.748;2023-02-12T01:09:16;100487.56;;;4.43;37.87
18527;BME280;9393;42.158;24.748;2023-02-12T01:12:23;100485.41;;;4.51;37.01
18527;BME280;9393;42.158;24.748;2023-02-12T01:15:28;100486.31;;;4.34;37.43
18527;BME280;9393;42.158;24.748;2023-02-12T01:18:32;100484.47;;;4.52;37.17
18527;BME280;9393;42.158;24.748;2023-02-12T01:21:36;100490.81;;;4.62;36.80
18527;BME280;9393;42.158;24.748;2023-02-12T01:24:41;100483.84;;;4.64;36.94
18527;BME280;9393;42.158;24.748;2023-02-12T01:27:46;100485.66;;;4.62;36.46
18527;BME280;9393;42.158;24.748;2023-02-12T01:30:50;100484.41;;;4.69;36.44
18527;BME280;9393;42.158;24.748;2023-02-12T01:33:56;100482.28;;;4.77;36.70
18527;BME280;9393;42.158;24.748;2023-02-12T01:37:01;100463.59;;;4.88;36.21
18527;BME280;9393;42.158;24.748;2023-02-12T01:40:07;100465.13;;;4.92;36.09
18527;BME280;9393;42.158;24.748;2023-02-12T01:43:12;100460.00;;;4.90;35.90
18527;BME280;9393;42.158;24.748;2023-02-12T01:46:16;100466.50;;;4.97;36.03
18527;BME280;9393;42.158;24.748;2023-02-12T01:49:22;100468.03;;;5.01;36.06
18527;BME280;9393;42.158;24.748;2023-02-12T01:52:29;100464.53;;;5.02;35.92
18527;BME280;9393;42.158;24.748;2023-02-12T01:55:35;100453.25;;;5.03;35.82
18527;BME280;9393;42.158;24.748;2023-02-12T01:58:42;100453.19;;;5.05;35.78
18527;BME280;9393;42.158;24.748;2023-02-12T02:01:46;100456.00;;;5.16;35.76
18527;BME280;9393;42.158;24.748;2023-02-12T02:04:52;100461.50;;;5.26;35.75
18527;BME280;9393;42.158;24.748;2023-02-12T02:07:58;100457.94;;;5.13;36.03
18527;BME280;9393;42.158;24.748;2023-02-12T02:11:02;100463.34;;;5.24;35.61
18527;BME280;9393;42.158;24.748;2023-02-12T02:14:28;100447.94;;;5.06;35.96
18527;BME280;9393;42.158;24.748;2023-02-12T02:17:46;100448.19;;;5.02;35.90
18527;BME280;9393;42.158;24.748;2023-02-12T02:21:26;100463.03;;;4.98;35.32
18527;BME280;9393;42.158;24.748;2023-02-12T02:24:51;100457.34;;;5.07;35.23
18527;BME280;9393;42.158;24.748;2023-02-12T02:28:05;100467.34;;;4.98;35.20
18527;BME280;9393;42.158;24.748;2023-02-12T02:31:19;100473.19;;;5.01;35.50
18527;BME280;9393;42.158;24.748;2023-02-12T02:34:28;100464.94;;;4.79;35.99
18527;BME280;9393;42.158;24.748;2023-02-12T02:37:39;100461.69;;;4.91;36.23
18527;BME280;9393;42.158;24.748;2023-02-12T02:40:52;100468.72;;;4.89;36.74
18527;BME280;9393;42.158;24.748;2023-02-12T02:43:58;100464.69;;;4.99;36.60
18527;BME280;9393;42.158;24.748;2023-02-12T02:47:07;100475.63;;;4.89;37.32
18527;BME280;9393;42.158;24.748;2023-02-12T02:50:14;100469.78;;;4.85;37.35
18527;BME280;9393;42.158;24.748;2023-02-12T02:53:22;100477.03;;;4.94;37.34
18527;BME280;9393;42.158;24.748;2023-02-12T02:56:31;100474.69;;;5.05;36.99
18527;BME280;9393;42.158;24.748;2023-02-12T02:59:42;100468.75;;;5.03;37.00
18527;BME280;9393;42.158;24.748;2023-02-12T03:02:52;100465.78;;;4.95;37.42
18527;BME280;9393;42.158;24.748;2023-02-12T03:06:02;100465.34;;;4.87;37.81
18527;BME280;9393;42.158;24.748;2023-02-12T03:09:14;100469.28;;;4.94;37.65
18527;BME280;9393;42.158;24.748;2023-02-12T03:12:24;100481.38;;;5.09;37.58
18527;BME280;9393;42.158;24.748;2023-02-12T03:15:33;100475.22;;;4.96;37.87
18527;BME280;9393;42.158;24.748;2023-02-12T03:18:43;100464.69;;;4.68;38.10
18527;BME280;9393;42.158;24.748;2023-02-12T03:21:51;100468.38;;;4.95;37.38
18527;BME280;9393;42.158;24.748;2023-02-12T03:25:01;100477.78;;;4.96;37.22
18527;BME280;9393;42.158;24.748;2023-02-12T03:28:10;100470.03;;;4.81;37.54
18527;BME280;9393;42.158;24.748;2023-02-12T03:31:25;100477.78;;;4.81;37.49
18527;BME280;9393;42.158;24.748;2023-02-12T03:34:43;100472.94;;;4.90;37.39
18527;BME280;9393;42.158;24.748;2023-02-12T03:37:55;100471.03;;;4.94;36.83
18527;BME280;9393;42.158;24.748;2023-02-12T03:41:05;100475.44;;;5.07;36.45
18527;BME280;9393;42.158;24.748;2023-02-12T03:44:19;100469.88;;;4.99;36.35
18527;BME280;9393;42.158;24.748;2023-02-12T03:47:32;100466.69;;;5.10;36.38
18527;BME280;9393;42.158;24.748;2023-02-12T03:50:47;100462.69;;;4.89;37.12
18527;BME280;9393;42.158;24.748;2023-02-12T03:53:54;100466.50;;;4.97;36.71
18527;BME280;9393;42.158;24.748;2023-02-12T03:57:02;100460.44;;;4.83;36.29
18527;BME280;9393;42.158;24.748;2023-02-12T04:00:11;100472.84;;;5.07;36.44
18527;BME280;9393;42.158;24.748;2023-02-12T04:03:15;100474.78;;;5.04;36.34
18527;BME280;9393;42.158;24.748;2023-02-12T04:06:22;100474.69;;;5.05;36.86
18527;BME280;9393;42.158;24.748;2023-02-12T04:09:27;100479.69;;;5.08;36.82
18527;BME280;9393;42.158;24.748;2023-02-12T04:12:37;100477.34;;;5.04;37.31
18527;BME280;9393;42.158;24.748;2023-02-12T04:15:51;100471.94;;;5.08;37.42
18527;BME280;9393;42.158;24.748;2023-02-12T04:18:59;100479.44;;;5.13;37.32
18527;BME280;9393;42.158;24.748;2023-02-12T04:22:15;100480.72;;;5.06;37.37
18527;BME280;9393;42.158;24.748;2023-02-12T04:25:32;100484.88;;;5.08;37.32
18527;BME280;9393;42.158;24.748;2023-02-12T04:28:46;100482.34;;;5.07;37.28
18527;BME280;9393;42.158;24.748;2023-02-12T04:31:58;100491.28;;;5.01;37.16
18527;BME280;9393;42.158;24.748;2023-02-12T04:35:08;100486.38;;;5.13;36.45
18527;BME280;9393;42.158;24.748;2023-02-12T04:38:20;100497.53;;;4.97;37.11
18527;BME280;9393;42.158;24.748;2023-02-12T04:41:26;100499.19;;;5.14;36.31
18527;BME280;9393;42.158;24.748;2023-02-12T04:44:31;100494.38;;;5.08;36.24
18527;BME280;9393;42.158;24.748;2023-02-12T04:47:35;100503.72;;;5.26;36.25
18527;BME280;9393;42.158;24.748;2023-02-12T04:50:41;100497.88;;;5.23;35.95
18527;BME280;9393;42.158;24.748;2023-02-12T04:53:48;100501.72;;;5.16;36.22
18527;BME280;9393;42.158;24.748;2023-02-12T04:56:52;100510.22;;;5.33;35.99
18527;BME280;9393;42.158;24.748;2023-02-12T04:59:56;100509.91;;;5.24;36.51
18527;BME280;9393;42.158;24.748;2023-02-12T05:03:00;100508.75;;;5.14;36.98
18527;BME280;9393;42.158;24.748;2023-02-12T05:06:04;100499.94;;;5.32;36.94
18527;BME280;9393;42.158;24.748;2023-02-12T05:09:13;100501.44;;;5.36;36.77
18527;BME280;9393;42.158;24.748;2023-02-12T05:12:17;100503.19;;;5.35;36.58
18527;BME280;9393;42.158;24.748;2023-02-12T05:15:21;100512.78;;;5.18;36.98
18527;BME280;9393;42.158;24.748;2023-02-12T05:18:25;100519.91;;;5.30;37.01
18527;BME280;9393;42.158;24.748;2023-02-12T05:21:28;100523.38;;;5.29;37.35
18527;BME280;9393;42.158;24.748;2023-02-12T05:24:33;100531.66;;;5.20;37.56
18527;BME280;9393;42.158;24.748;2023-02-12T05:27:37;100519.47;;;5.22;37.89
18527;BME280;9393;42.158;24.748;2023-02-12T05:30:40;100521.16;;;5.23;38.19
18527;BME280;9393;42.158;24.748;2023-02-12T05:33:46;100526.56;;;5.34;38.10
18527;BME280;9393;42.158;24.748;2023-02-12T05:36:50;100527.84;;;5.27;38.37
18527;BME280;9393;42.158;24.748;2023-02-12T05:39:55;100532.81;;;5.30;38.14
18527;BME280;9393;42.158;24.748;2023-02-12T05:42:58;100529.22;;;5.32;38.24
18527;BME280;9393;42.158;24.748;2023-02-12T05:46:03;100534.41;;;5.32;38.08
18527;BME280;9393;42.158;24.748;2023-02-12T05:49:09;100542.66;;;5.39;38.10
18527;BME280;9393;42.158;24.748;2023-02-12T05:52:12;100547.41;;;5.46;37.23
18527;BME280;9393;42.158;24.748;2023-02-12T05:55:18;100544.16;;;5.43;37.35
18527;BME280;9393;42.158;24.748;2023-02-12T05:58:21;100545.16;;;5.56;37.23
18527;BME280;9393;42.158;24.748;2023-02-12T06:01:27;100547.16;;;5.51;37.32
18527;BME280;9393;42.158;24.748;2023-02-12T06:04:31;100551.75;;;5.62;37.17
18527;BME280;9393;42.158;24.748;2023-02-12T06:07:35;100550.88;;;5.77;36.97
18527;BME280;9393;42.158;24.748;2023-02-12T06:10:41;100554.88;;;5.82;36.68
18527;BME280;9393;42.158;24.748;2023-02-12T06:13:44;100550.44;;;5.84;37.08
18527;BME280;9393;42.158;24.748;2023-02-12T06:16:50;100549.44;;;5.87;37.25
18527;BME280;9393;42.158;24.748;2023-02-12T06:19:54;100549.94;;;5.93;37.21
18527;BME280;9393;42.158;24.748;2023-02-12T06:22:57;100540.63;;;6.05;37.16
18527;BME280;9393;42.158;24.748;2023-02-12T06:26:03;100551.53;;;5.96;37.34
18527;BME280;9393;42.158;24.748;2023-02-12T06:29:07;100547.50;;;6.06;37.33
18527;BME280;9393;42.158;24.748;2023-02-12T06:32:11;100545.91;;;6.03;37.52
18527;BME280;9393;42.158;24.748;2023-02-12T06:35:16;100552.03;;;6.02;37.70
18527;BME280;9393;42.158;24.748;2023-02-12T06:38:20;100555.16;;;6.07;37.51
18527;BME280;9393;42.158;24.748;2023-02-12T06:41:25;100548.47;;;6.03;37.99
18527;BME280;9393;42.158;24.748;2023-02-12T06:44:29;100557.78;;;6.22;37.75
18527;BME280;9393;42.158;24.748;2023-02-12T06:47:33;100553.66;;;6.33;37.53
18527;BME280;9393;42.158;24.748;2023-02-12T06:50:37;100554.31;;;6.37;37.84
18527;BME280;9393;42.158;24.748;2023-02-12T06:53:41;100559.47;;;6.23;38.02
18527;BME280;9393;42.158;24.748;2023-02-12T06:56:47;100562.84;;;6.53;37.46
18527;BME280;9393;42.158;24.748;2023-02-12T06:59:51;100570.88;;;6.63;37.31
18527;BME280;9393;42.158;24.748;2023-02-12T07:02:55;100566.47;;;6.65;37.86
18527;BME280;9393;42.158;24.748;2023-02-12T07:05:59;100576.91;;;6.63;37.91
18527;BME280;9393;42.158;24.748;2023-02-12T07:09:04;100577.47;;;6.68;38.43
18527;BME280;9393;42.158;24.748;2023-02-12T07:12:09;100571.91;;;6.74;38.80
18527;BME280;9393;42.158;24.748;2023-02-12T07:15:13;100584.88;;;6.88;38.88
18527;BME280;9393;42.158;24.748;2023-02-12T07:18:16;100574.13;;;6.94;39.11
18527;BME280;9393;42.158;24.748;2023-02-12T07:21:21;100579.31;;;6.66;39.56
18527;BME280;9393;42.158;24.748;2023-02-12T07:24:24;100573.03;;;6.84;39.92
18527;BME280;9393;42.158;24.748;2023-02-12T07:27:30;100577.09;;;6.88;39.83
18527;BME280;9393;42.158;24.748;2023-02-12T07:30:34;100571.09;;;6.88;39.95
18527;BME280;9393;42.158;24.748;2023-02-12T07:33:38;100573.56;;;7.03;39.79
18527;BME280;9393;42.158;24.748;2023-02-12T07:36:42;100577.28;;;7.14;39.37
18527;BME280;9393;42.158;24.748;2023-02-12T07:39:46;100562.63;;;7.13;39.46
18527;BME280;9393;42.158;24.748;2023-02-12T07:42:55;100575.44;;;7.01;39.85
18527;BME280;9393;42.158;24.748;2023-02-12T07:46:05;100582.28;;;6.88;40.19
18527;BME280;9393;42.158;24.748;2023-02-12T07:49:11;100575.31;;;7.17;40.10
18527;BME280;9393;42.158;24.748;2023-02-12T07:52:16;100582.34;;;7.29;39.61
18527;BME280;9393;42.158;24.748;2023-02-12T07:55:20;100582.75;;;7.50;39.46
18527;BME280;9393;42.158;24.748;2023-02-12T07:58:25;100582.44;;;7.69;39.17
18527;BME280;9393;42.158;24.748;2023-02-12T08:01:31;100588.50;;;7.55;39.09
18527;BME280;9393;42.158;24.748;2023-02-12T08:04:35;100595.53;;;7.53;39.29
18527;BME280;9393;42.158;24.748;2023-02-12T08:07:39;100604.16;;;7.53;39.67
18527;BME280;9393;42.158;24.748;2023-02-12T08:10:43;100599.97;;;7.65;39.58
18527;BME280;9393;42.158;24.748;2023-02-12T08:13:48;100602.50;;;7.52;40.20
18527;BME280;9393;42.158;24.748;2023-02-12T08:16:52;100604.41;;;7.63;40.33
18527;BME280;9393;42.158;24.748;2023-02-12T08:19:56;100611.31;;;7.50;40.38
18527;BME280;9393;42.158;24.748;2023-02-12T08:23:00;100614.84;;;7.35;41.06
18527;BME280;9393;42.158;24.748;2023-02-12T08:26:06;100619.66;;;7.55;41.28
18527;BME280;9393;42.158;24.748;2023-02-12T08:29:13;100620.19;;;7.60;41.45
18527;BME280;9393;42.158;24.748;2023-02-12T08:32:17;100633.00;;;7.49;42.22
18527;BME280;9393;42.158;24.748;2023-02-12T08:35:21;100631.56;;;7.72;41.88
18527;BME280;9393;42.158;24.748;2023-02-12T08:38:25;100636.38;;;7.78;41.84
18527;BME280;9393;42.158;24.748;2023-02-12T08:41:29;100636.00;;;7.96;42.12
18527;BME280;9393;42.158;24.748;2023-02-12T08:44:34;100637.88;;;7.68;43.63
18527;BME280;9393;42.158;24.748;2023-02-12T08:47:38;100644.44;;;8.00;43.50
18527;BME280;9393;42.158;24.748;2023-02-12T08:50:42;100643.81;;;7.96;44.04
18527;BME280;9393;42.158;24.748;2023-02-12T08:53:47;100645.56;;;8.23;43.77
18527;BME280;9393;42.158;24.748;2023-02-12T08:56:54;100649.84;;;7.97;45.08
18527;BME280;9393;42.158;24.748;2023-02-12T09:00:00;100655.63;;;7.88;45.44
18527;BME280;9393;42.158;24.748;2023-02-12T09:03:04;100661.47;;;7.91;45.51
18527;BME280;9393;42.158;24.748;2023-02-12T09:06:08;100668.97;;;7.96;46.20
18527;BME280;9393;42.158;24.748;2023-02-12T09:09:12;100665.28;;;7.86;46.48
18527;BME280;9393;42.158;24.748;2023-02-12T09:12:16;100665.69;;;8.06;46.10
18527;BME280;9393;42.158;24.748;2023-02-12T09:15:22;100669.25;;;8.18;45.76
18527;BME280;9393;42.158;24.748;2023-02-12T09:18:25;100674.50;;;8.04;46.19
18527;BME280;9393;42.158;24.748;2023-02-12T09:21:29;100675.78;;;8.38;44.98
18527;BME280;9393;42.158;24.748;2023-02-12T09:24:33;100678.31;;;8.25;45.69
18527;BME280;9393;42.158;24.748;2023-02-12T09:27:38;100680.47;;;8.45;45.42
18527;BME280;9393;42.158;24.748;2023-02-12T09:30:43;100680.00;;;8.66;44.86
18527;BME280;9393;42.158;24.748;2023-02-12T09:33:48;100685.59;;;8.59;44.42
18527;BME280;9393;42.158;24.748;2023-02-12T09:36:56;100684.19;;;8.81;44.36
18527;BME280;9393;42.158;24.748;2023-02-12T09:39:59;100684.66;;;8.48;45.00
18527;BME280;9393;42.158;24.748;2023-02-12T09:43:16;100692.91;;;8.80;44.17
18527;BME280;9393;42.158;24.748;2023-02-12T09:46:28;100675.59;;;8.41;44.79
18527;BME280;9393;42.158;24.748;2023-02-12T09:49:45;100676.25;;;8.57;45.01
18527;BME280;9393;42.158;24.748;2023-02-12T09:52:53;100684.53;;;8.37;45.15
18527;BME280;9393;42.158;24.748;2023-02-12T09:56:00;100685.59;;;8.47;45.33
18527;BME280;9393;42.158;24.748;2023-02-12T09:59:05;100677.09;;;8.70;44.83
18527;BME280;9393;42.158;24.748;2023-02-12T10:02:13;100672.72;;;9.46;43.01
18527;BME280;9393;42.158;24.748;2023-02-12T10:05:20;100669.91;;;10.09;41.65
18527;BME280;9393;42.158;24.748;2023-02-12T10:08:34;100678.69;;;10.67;40.60
18527;BME280;9393;42.158;24.748;2023-02-12T10:11:52;100677.59;;;11.27;38.73
18527;BME280;9393;42.158;24.748;2023-02-12T10:15:14;100672.09;;;11.63;37.74
18527;BME280;9393;42.158;24.748;2023-02-12T10:18:37;100669.09;;;11.90;37.20
18527;BME280;9393;42.158;24.748;2023-02-12T10:21:52;100667.19;;;12.55;36.81
18527;BME280;9393;42.158;24.748;2023-02-12T10:25:08;100667.84;;;12.89;35.48
18527;BME280;9393;42.158;24.748;2023-02-12T10:28:18;100663.09;;;12.83;35.39
18527;BME280;9393;42.158;24.748;2023-02-12T10:31:26;100659.53;;;13.35;35.03
18527;BME280;9393;42.158;24.748;2023-02-12T10:34:35;100664.47;;;13.69;34.31
18527;BME280;9393;42.158;24.748;2023-02-12T10:37:42;100667.91;;;13.69;34.98
18527;BME280;9393;42.158;24.748;2023-02-12T10:40:47;100660.53;;;14.12;33.70
18527;BME280;9393;42.158;24.748;2023-02-12T10:43:52;100659.72;;;14.22;33.53
18527;BME280;9393;42.158;24.748;2023-02-12T10:46:56;100666.88;;;14.00;34.10
18527;BME280;9393;42.158;24.748;2023-02-12T10:50:07;100660.69;;;12.91;34.58
18527;BME280;9393;42.158;24.748;2023-02-12T10:53:20;100669.63;;;12.89;35.02
18527;BME280;9393;42.158;24.748;2023-02-12T10:56:24;100667.28;;;13.37;34.87
18527;BME280;9393;42.158;24.748;2023-02-12T10:59:28;100662.84;;;13.77;34.47
18527;BME280;9393;42.158;24.748;2023-02-12T11:02:33;100667.69;;;13.42;34.62
18527;BME280;9393;42.158;24.748;2023-02-12T11:05:40;100666.69;;;13.83;34.19
18527;BME280;9393;42.158;24.748;2023-02-12T11:08:44;100669.28;;;13.03;34.66
18527;BME280;9393;42.158;24.748;2023-02-12T11:11:54;100673.16;;;12.57;35.84
18527;BME280;9393;42.158;24.748;2023-02-12T11:14:59;100676.75;;;12.66;35.71
18527;BME280;9393;42.158;24.748;2023-02-12T11:18:05;100683.28;;;12.51;35.71
18527;BME280;9393;42.158;24.748;2023-02-12T11:21:12;100684.78;;;12.33;35.94
18527;BME280;9393;42.158;24.748;2023-02-12T11:24:29;100684.19;;;11.97;36.39
18527;BME280;9393;42.158;24.748;2023-02-12T11:27:33;100684.13;;;12.20;36.39
18527;BME280;9393;42.158;24.748;2023-02-12T11:30:48;100682.63;;;12.06;36.18
18527;BME280;9393;42.158;24.748;2023-02-12T11:34:12;100686.47;;;11.91;36.44
18527;BME280;9393;42.158;24.748;2023-02-12T11:37:19;100688.81;;;12.05;36.44
18527;BME280;9393;42.158;24.748;2023-02-12T11:40:25;100686.72;;;12.31;35.78
18527;BME280;9393;42.158;24.748;2023-02-12T11:43:30;100686.19;;;12.05;36.17
18527;BME280;9393;42.158;24.748;2023-02-12T11:46:35;100688.00;;;11.93;36.39
18527;BME280;9393;42.158;24.748;2023-02-12T11:49:42;100683.50;;;11.73;36.30
18527;BME280;9393;42.158;24.748;2023-02-12T11:52:55;100685.88;;;11.76;36.63
18527;BME280;9393;42.158;24.748;2023-02-12T11:56:02;100684.69;;;11.25;37.44
18527;BME280;9393;42.158;24.748;2023-02-12T11:59:11;100679.03;;;11.31;37.59
18527;BME280;9393;42.158;24.748;2023-02-12T12:02:23;100684.94;;;11.44;37.57
18527;BME280;9393;42.158;24.748;2023-02-12T12:05:32;100677.91;;;11.55;36.76
18527;BME280;9393;42.158;24.748;2023-02-12T12:08:42;100681.97;;;11.93;36.48
18527;BME280;9393;42.158;24.748;2023-02-12T12:11:56;100677.44;;;11.84;36.72
18527;BME280;9393;42.158;24.748;2023-02-12T12:15:05;100681.97;;;11.93;36.78
18527;BME280;9393;42.158;24.748;2023-02-12T12:18:32;100683.25;;;11.87;37.13
18527;BME280;9393;42.158;24.748;2023-02-12T12:22:01;100680.53;;;11.55;37.49
18527;BME280;9393;42.158;24.748;2023-02-12T12:25:14;100680.88;;;11.62;37.14
18527;BME280;9393;42.158;24.748;2023-02-12T12:28:28;100692.28;;;11.83;36.93
18527;BME280;9393;42.158;24.748;2023-02-12T12:31:37;100702.41;;;11.77;37.21
18527;BME280;9393;42.158;24.748;2023-02-12T12:34:41;100698.94;;;11.76;36.98
18527;BME280;9393;42.158;24.748;2023-02-12T12:37:47;100707.63;;;11.10;38.01
18527;BME280;9393;42.158;24.748;2023-02-12T12:41:06;100709.16;;;11.24;38.11
18527;BME280;9393;42.158;24.748;2023-02-12T12:44:24;100716.03;;;11.13;38.41
18527;BME280;9393;42.158;24.748;2023-02-12T12:47:39;100718.75;;;11.12;37.98
18527;BME280;9393;42.158;24.748;2023-02-12T12:51:00;100723.47;;;11.07;38.10
18527;BME280;9393;42.158;24.748;2023-02-12T12:54:21;100718.41;;;11.05;38.13
18527;BME280;9393;42.158;24.748;2023-02-12T12:57:45;100710.66;;;10.93;38.44
18527;BME280;9393;42.158;24.748;2023-02-12T13:04:49;100721.22;;;10.91;38.56
18527;BME280;9393;42.158;24.748;2023-02-12T13:08:00;100733.56;;;11.00;38.58
18527;BME280;9393;42.158;24.748;2023-02-12T13:11:16;100732.97;;;11.08;38.45
18527;BME280;9393;42.158;24.748;2023-02-12T13:14:31;100735.34;;;11.00;38.67
18527;BME280;9393;42.158;24.748;2023-02-12T13:17:41;100739.38;;;11.04;38.50
18527;BME280;9393;42.158;24.748;2023-02-12T13:20:52;100744.38;;;11.07;38.36
18527;BME280;9393;42.158;24.748;2023-02-12T13:24:02;100751.41;;;11.06;38.57
18527;BME280;9393;42.158;24.748;2023-02-12T13:27:12;100751.81;;;11.00;38.61
18527;BME280;9393;42.158;24.748;2023-02-12T13:30:21;100743.84;;;10.56;39.46
18527;BME280;9393;42.158;24.748;2023-02-12T13:33:27;100764.13;;;10.52;39.50
18527;BME280;9393;42.158;24.748;2023-02-12T13:36:36;100763.34;;;10.63;39.64
18527;BME280;9393;42.158;24.748;2023-02-12T13:39:42;100764.28;;;10.62;39.74
18527;BME280;9393;42.158;24.748;2023-02-12T13:42:53;100766.88;;;10.62;39.69
18527;BME280;9393;42.158;24.748;2023-02-12T13:46:05;100765.06;;;10.75;39.60
18527;BME280;9393;42.158;24.748;2023-02-12T13:49:17;100765.19;;;10.85;39.52
18527;BME280;9393;42.158;24.748;2023-02-12T13:52:29;100764.22;;;10.75;39.66
18527;BME280;9393;42.158;24.748;2023-02-12T13:55:40;100774.75;;;10.73;40.01
18527;BME280;9393;42.158;24.748;2023-02-12T13:58:49;100777.88;;;10.78;39.51
18527;BME280;9393;42.158;24.748;2023-02-12T14:01:56;100771.13;;;10.87;39.56
18527;BME280;9393;42.158;24.748;2023-02-12T14:05:01;100777.13;;;10.76;39.87
18527;BME280;9393;42.158;24.748;2023-02-12T14:08:05;100784.78;;;10.90;39.61
18527;BME280;9393;42.158;24.748;2023-02-12T14:11:12;100788.00;;;10.94;39.53
18527;BME280;9393;42.158;24.748;2023-02-12T14:14:24;100797.03;;;10.66;39.82
18527;BME280;9393;42.158;24.748;2023-02-12T14:17:52;100807.63;;;10.52;40.06
18527;BME280;9393;42.158;24.748;2023-02-12T14:24:48;100823.28;;;10.52;41.02
18527;BME280;9393;42.158;24.748;2023-02-12T14:27:53;100818.25;;;10.12;41.79
18527;BME280;9393;42.158;24.748;2023-02-12T14:31:21;100824.41;;;10.11;42.21
18527;BME280;9393;42.158;24.748;2023-02-12T14:34:48;100836.19;;;10.17;42.49
18527;BME280;9393;42.158;24.748;2023-02-12T14:37:53;100840.16;;;10.23;42.42
18527;BME280;9393;42.158;24.748;2023-02-12T14:41:15;100838.88;;;10.28;42.44
18527;BME280;9393;42.158;24.748;2023-02-12T14:44:44;100850.38;;;10.13;42.68
18527;BME280;9393;42.158;24.748;2023-02-12T14:47:49;100864.56;;;10.09;43.07
18527;BME280;9393;42.158;24.748;2023-02-12T14:50:54;100873.09;;;10.11;42.75
18527;BME280;9393;42.158;24.748;2023-02-12T14:53:59;100873.53;;;10.18;43.01
18527;BME280;9393;42.158;24.748;2023-02-12T14:57:08;100884.59;;;9.96;43.53
18527;BME280;9393;42.158;24.748;2023-02-12T15:00:22;100896.88;;;9.94;43.60
18527;BME280;9393;42.158;24.748;2023-02-12T15:03:37;100894.91;;;9.85;43.59
18527;BME280;9393;42.158;24.748;2023-02-12T15:06:49;100909.81;;;9.70;44.04
18527;BME280;9393;42.158;24.748;2023-02-12T15:09:57;100912.09;;;9.87;43.99
18527;BME280;9393;42.158;24.748;2023-02-12T15:13:16;100916.56;;;9.60;44.43
18527;BME280;9393;42.158;24.748;2023-02-12T15:16:28;100926.81;;;9.88;43.81
18527;BME280;9393;42.158;24.748;2023-02-12T15:19:39;100935.44;;;9.76;44.45
18527;BME280;9393;42.158;24.748;2023-02-12T15:22:47;100932.53;;;9.81;44.33
18527;BME280;9393;42.158;24.748;2023-02-12T15:25:51;100938.16;;;9.75;44.62
18527;BME280;9393;42.158;24.748;2023-02-12T15:28:55;100932.91;;;9.62;44.76
18527;BME280;9393;42.158;24.748;2023-02-12T15:32:01;100943.53;;;9.59;45.10
18527;BME280;9393;42.158;24.748;2023-02-12T15:35:19;100958.16;;;9.61;45.01
18527;BME280;9393;42.158;24.748;2023-02-12T15:38:30;100961.91;;;9.70;44.82
18527;BME280;9393;42.158;24.748;2023-02-12T15:41:37;100968.94;;;9.55;45.13
18527;BME280;9393;42.158;24.748;2023-02-12T15:44:41;100977.16;;;9.49;45.52
18527;BME280;9393;42.158;24.748;2023-02-12T15:47:56;100976.53;;;9.46;45.86
18527;BME280;9393;42.158;24.748;2023-02-12T15:51:07;100984.25;;;9.47;45.74
18527;BME280;9393;42.158;24.748;2023-02-12T15:54:17;100998.41;;;9.43;45.85
18527;BME280;9393;42.158;24.748;2023-02-12T15:57:23;101000.66;;;9.35;45.98
18527;BME280;9393;42.158;24.748;2023-02-12T16:00:34;101009.34;;;9.22;46.76
18527;BME280;9393;42.158;24.748;2023-02-12T16:03:39;101016.25;;;9.23;46.77
18527;BME280;9393;42.158;24.748;2023-02-12T16:06:43;101025.81;;;9.22;46.94
18527;BME280;9393;42.158;24.748;2023-02-12T16:09:50;101025.44;;;9.14;47.04
18527;BME280;9393;42.158;24.748;2023-02-12T16:12:55;101034.28;;;9.11;47.18
18527;BME280;9393;42.158;24.748;2023-02-12T16:16:03;101044.34;;;9.03;47.51
18527;BME280;9393;42.158;24.748;2023-02-12T16:19:17;101050.47;;;9.17;47.34
18527;BME280;9393;42.158;24.748;2023-02-12T16:22:29;101056.03;;;8.96;47.73
18527;BME280;9393;42.158;24.748;2023-02-12T16:25:35;101065.09;;;9.32;46.83
18527;BME280;9393;42.158;24.748;2023-02-12T16:28:45;101083.00;;;9.09;47.39
18527;BME280;9393;42.158;24.748;2023-02-12T16:31:55;101101.88;;;9.13;47.12
18527;BME280;9393;42.158;24.748;2023-02-12T16:35:02;101110.81;;;9.09;47.51
18527;BME280;9393;42.158;24.748;2023-02-12T16:38:38;101111.72;;;9.22;47.11
18527;BME280;9393;42.158;24.748;2023-02-12T16:41:54;101117.94;;;9.20;47.14